Time;durP1;ratioP1;P1;durP2;ratioP2;P2;SDS_P1;SDS_P2;PMS_P1;PMS_P2;Temp;Humidity;BMP_temperature;BMP_pressure;BME280_temperature;BME280_humidity;BME280_pressure;Samples;Min_cycle;Max_cycle;Signal;HPM_P1;HPM_P2
2023/12/29 00:00:37;;;;;;;1687.25;999.90;;;;;;;;;;5076635;28;20473;-67
2023/12/29 00:03:05;;;;;;;1906.05;999.90;;;;;;;;;;5075631;28;20024;-68
2023/12/29 00:05:31;;;;;;;1870.45;999.90;;;;;;;;;;5076573;28;20038;-68
2023/12/29 00:07:58;;;;;;;1837.22;999.90;;;;;;;;;;5076460;28;20102;-68
2023/12/29 00:10:25;;;;;;;1765.68;999.90;;;;;;;;;;5074015;28;20173;-69
2023/12/29 00:12:51;;;;;;;1740.32;999.90;;;;;;;;;;5074182;28;20044;-68
2023/12/29 00:15:18;;;;;;;1701.80;999.90;;;;;;;;;;5076462;28;20023;-68
2023/12/29 00:17:46;;;;;;;1677.35;999.90;;;;;;;;;;5076196;28;20457;-66
2023/12/29 00:20:13;;;;;;;1627.78;999.90;;;;;;;;;;5072343;28;20040;-67
2023/12/29 00:22:40;;;;;;;1614.93;999.90;;;;;;;;;;5075851;28;20028;-67
2023/12/29 00:25:08;;;;;;;1485.22;999.90;;;;;;;;;;5075761;28;20020;-67
2023/12/29 00:27:36;;;;;;;1577.30;999.90;;;;;;;;;;5075352;28;20028;-67
2023/12/29 00:30:03;;;;;;;1582.15;999.90;;;;;;;;;;5075184;28;20147;-67
2023/12/29 00:32:29;;;;;;;1661.55;999.90;;;;;;;;;;5073640;28;20027;-67
2023/12/29 00:34:56;;;;;;;1588.40;999.90;;;;;;;;;;5075774;28;20488;-68
2023/12/29 00:37:23;;;;;;;1604.13;999.90;;;;;;;;;;5075573;28;20029;-67
2023/12/29 00:39:50;;;;;;;1619.60;999.90;;;;;;;;;;5075246;28;20033;-67
2023/12/29 00:42:17;;;;;;;1592.65;999.90;;;;;;;;;;5075263;28;20481;-66
2023/12/29 00:44:43;;;;;;;1588.70;999.90;;;;;;;;;;5075561;28;20024;-66
2023/12/29 00:47:10;;;;;;;1584.75;999.90;;;;;;;;;;5075261;28;20031;-67
2023/12/29 00:49:40;;;;;;;1589.97;999.90;;;;;;;;;;5074511;28;20032;-66
2023/12/29 00:52:06;;;;;;;1599.28;999.90;;;;;;;;;;5067903;28;20024;-68
2023/12/29 00:54:33;;;;;;;1578.32;999.90;;;;;;;;;;5060646;28;20101;-67
2023/12/29 00:57:00;;;;;;;1585.90;999.90;;;;;;;;;;5062010;28;20358;-67
2023/12/29 00:59:26;;;;;;;1573.43;999.90;;;;;;;;;;5073388;28;20083;-66
2023/12/29 01:01:53;;;;;;;1475.45;999.90;;;;;;;;;;5075228;28;20531;-66
2023/12/29 01:04:20;;;;;;;1571.68;999.90;;;;;;;;;;5075614;28;20024;-66
2023/12/29 01:06:46;;;;;;;1580.88;999.90;;;;;;;;;;5071591;28;20107;-66
2023/12/29 01:09:13;;;;;;;1588.88;999.90;;;;;;;;;;5075162;28;20024;-66
2023/12/29 01:11:39;;;;;;;1629.03;999.90;;;;;;;;;;5068144;28;20040;-66
2023/12/29 01:14:06;;;;;;;1603.20;999.90;;;;;;;;;;5068518;28;20024;-66
2023/12/29 01:16:33;;;;;;;1595.10;999.90;;;;;;;;;;5069965;28;20166;-67
2023/12/29 01:18:59;;;;;;;1585.22;999.90;;;;;;;;;;5075713;28;20025;-65
2023/12/29 01:21:26;;;;;;;1566.00;999.90;;;;;;;;;;5075375;28;20032;-67
2023/12/29 01:23:52;;;;;;;1550.28;999.90;;;;;;;;;;5044163;28;20366;-67
2023/12/29 01:26:19;;;;;;;1580.13;999.90;;;;;;;;;;5065917;28;20028;-68
2023/12/29 01:28:46;;;;;;;1569.03;999.90;;;;;;;;;;5065975;28;20682;-67
2023/12/29 01:31:13;;;;;;;1592.07;999.90;;;;;;;;;;5066749;28;20119;-68
2023/12/29 01:33:40;;;;;;;1579.97;999.90;;;;;;;;;;5066133;28;20023;-67
2023/12/29 01:36:06;;;;;;;1562.00;999.90;;;;;;;;;;5064170;28;20503;-67
2023/12/29 01:38:33;;;;;;;1586.93;999.90;;;;;;;;;;5066325;28;20082;-67
2023/12/29 01:40:59;;;;;;;1565.28;999.90;;;;;;;;;;5066065;28;20105;-66
2023/12/29 01:43:26;;;;;;;1574.32;999.90;;;;;;;;;;5063526;28;20074;-66
2023/12/29 01:45:53;;;;;;;1516.70;999.90;;;;;;;;;;5064720;28;20020;-66
2023/12/29 01:48:19;;;;;;;1481.53;999.90;;;;;;;;;;5066011;28;20482;-67
2023/12/29 01:50:46;;;;;;;1551.63;999.90;;;;;;;;;;5065163;28;20029;-66
2023/12/29 01:53:14;;;;;;;1477.60;999.90;;;;;;;;;;5068223;28;20058;-65
2023/12/29 01:55:40;;;;;;;1569.40;999.90;;;;;;;;;;5071100;28;20017;-67
2023/12/29 01:58:07;;;;;;;1442.93;999.90;;;;;;;;;;5065531;28;20032;-66
2023/12/29 02:00:34;;;;;;;1569.55;999.90;;;;;;;;;;5064291;28;20025;-66
2023/12/29 02:03:01;;;;;;;1550.70;999.90;;;;;;;;;;5065023;28;20028;-67
2023/12/29 02:05:29;;;;;;;1546.95;999.90;;;;;;;;;;5062516;28;20032;-67
2023/12/29 02:07:55;;;;;;;1491.78;999.90;;;;;;;;;;5064791;28;20040;-67
2023/12/29 02:10:22;;;;;;;1586.72;999.90;;;;;;;;;;5064141;28;20085;-67
2023/12/29 02:12:49;;;;;;;1473.10;999.90;;;;;;;;;;5063969;28;20485;-66
2023/12/29 02:15:16;;;;;;;1577.82;999.90;;;;;;;;;;5062568;28;20047;-65
2023/12/29 02:17:45;;;;;;;1561.95;999.90;;;;;;;;;;5064145;28;20025;-65
2023/12/29 02:20:12;;;;;;;1566.10;999.90;;;;;;;;;;5064208;28;20068;-67
2023/12/29 02:22:39;;;;;;;1573.88;999.90;;;;;;;;;;5064075;28;20024;-68
2023/12/29 02:25:06;;;;;;;1550.63;999.90;;;;;;;;;;5062713;28;20073;-67
2023/12/29 02:27:35;;;;;;;1570.00;999.90;;;;;;;;;;5064784;28;20071;-66
2023/12/29 02:30:12;;;;;;;1564.75;999.90;;;;;;;;;;5067800;28;20037;-65
2023/12/29 02:32:41;;;;;;;1532.53;999.90;;;;;;;;;;5064167;28;20044;-66
2023/12/29 02:35:10;;;;;;;1551.38;999.90;;;;;;;;;;5064116;28;20021;-67
2023/12/29 02:37:38;;;;;;;1558.30;999.90;;;;;;;;;;5064474;28;20020;-66
2023/12/29 02:40:04;;;;;;;1570.82;999.90;;;;;;;;;;5061393;28;20130;-65
2023/12/29 02:42:31;;;;;;;1540.63;999.90;;;;;;;;;;5058517;28;20033;-65
2023/12/29 02:44:58;;;;;;;1556.97;999.90;;;;;;;;;;5067910;28;20026;-64
2023/12/29 02:47:24;;;;;;;1482.95;999.90;;;;;;;;;;5078385;28;20032;-65
2023/12/29 02:49:51;;;;;;;1468.78;999.90;;;;;;;;;;5093259;28;20067;-66
2023/12/29 02:52:17;;;;;;;1566.95;999.90;;;;;;;;;;5075991;28;20027;-66
2023/12/29 02:54:44;;;;;;;1577.57;999.90;;;;;;;;;;5073082;28;20488;-66
2023/12/29 02:57:11;;;;;;;1561.32;999.90;;;;;;;;;;5073324;28;20051;-66
2023/12/29 02:59:37;;;;;;;1560.45;999.90;;;;;;;;;;5073163;28;20409;-65
2023/12/29 03:02:04;;;;;;;1479.55;999.90;;;;;;;;;;5073603;28;20021;-65
2023/12/29 03:04:31;;;;;;;1547.03;999.90;;;;;;;;;;5073028;28;20028;-64
2023/12/29 03:06:57;;;;;;;1573.53;999.90;;;;;;;;;;5073063;28;20094;-65
2023/12/29 03:09:24;;;;;;;1578.00;999.90;;;;;;;;;;5072914;28;20023;-65
2023/12/29 03:11:50;;;;;;;1582.72;999.90;;;;;;;;;;5072970;28;20116;-65
2023/12/29 03:14:17;;;;;;;1524.50;999.90;;;;;;;;;;5055041;28;20381;-65
2023/12/29 03:16:43;;;;;;;1587.53;999.90;;;;;;;;;;5072892;28;20017;-65
2023/12/29 03:19:10;;;;;;;1580.90;999.90;;;;;;;;;;5076844;28;20045;-66
2023/12/29 03:21:37;;;;;;;1573.88;999.90;;;;;;;;;;5077117;28;20025;-65
2023/12/29 03:24:03;;;;;;;1582.88;999.90;;;;;;;;;;5077097;28;20024;-65
2023/12/29 03:26:30;;;;;;;1526.95;999.90;;;;;;;;;;5076934;28;20418;-65
2023/12/29 03:28:56;;;;;;;1583.90;999.90;;;;;;;;;;5076764;28;20037;-65
2023/12/29 03:31:23;;;;;;;1580.20;999.90;;;;;;;;;;5076612;28;20028;-65
2023/12/29 03:33:49;;;;;;;1566.93;999.90;;;;;;;;;;5076604;28;20427;-65
2023/12/29 03:36:16;;;;;;;1556.18;999.90;;;;;;;;;;5076749;28;20023;-65
2023/12/29 03:38:43;;;;;;;1586.38;999.90;;;;;;;;;;5077114;28;20028;-66
2023/12/29 03:41:09;;;;;;;1583.85;999.90;;;;;;;;;;5077133;28;20107;-65
2023/12/29 03:43:36;;;;;;;1589.03;999.90;;;;;;;;;;5077069;28;20013;-65
2023/12/29 03:46:02;;;;;;;1577.93;999.90;;;;;;;;;;5076965;28;20412;-66
2023/12/29 03:48:29;;;;;;;1581.00;999.90;;;;;;;;;;5076744;28;20039;-65
2023/12/29 03:50:56;;;;;;;1575.13;999.90;;;;;;;;;;5077209;28;20155;-65
2023/12/29 03:53:22;;;;;;;1536.43;999.90;;;;;;;;;;5076711;28;20150;-65
2023/12/29 03:55:49;;;;;;;1587.13;999.90;;;;;;;;;;5076666;28;20025;-65
2023/12/29 03:58:15;;;;;;;1538.35;999.90;;;;;;;;;;5075721;28;20028;-66
2023/12/29 04:00:42;;;;;;;1585.13;999.90;;;;;;;;;;5075269;28;20024;-66
2023/12/29 04:03:08;;;;;;;1587.07;999.90;;;;;;;;;;5076323;28;20048;-65
2023/12/29 04:05:35;;;;;;;1520.32;999.90;;;;;;;;;;5075870;28;20435;-66
2023/12/29 04:08:02;;;;;;;1524.85;999.90;;;;;;;;;;5082248;22;20045;-65
2023/12/29 04:10:28;;;;;;;1600.38;999.90;;;;;;;;;;5055960;28;20528;-66
2023/12/29 04:12:55;;;;;;;1584.20;999.90;;;;;;;;;;5055486;28;20543;-66
2023/12/29 04:15:22;;;;;;;1538.53;999.90;;;;;;;;;;5055731;28;20104;-66
2023/12/29 04:17:48;;;;;;;1588.95;999.90;;;;;;;;;;5055817;28;20031;-66
2023/12/29 04:20:15;;;;;;;1585.20;999.90;;;;;;;;;;5055647;28;20109;-66
2023/12/29 04:22:41;;;;;;;1510.32;999.90;;;;;;;;;;5055628;28;20029;-65
2023/12/29 04:25:08;;;;;;;1535.43;999.90;;;;;;;;;;5055315;28;20095;-65
2023/12/29 04:27:35;;;;;;;1586.47;999.90;;;;;;;;;;5055608;28;20029;-65
2023/12/29 04:30:02;;;;;;;1584.22;999.90;;;;;;;;;;5054496;28;20462;-66
2023/12/29 04:32:29;;;;;;;1588.47;999.90;;;;;;;;;;5055554;28;20386;-65
2023/12/29 04:34:56;;;;;;;1561.20;999.90;;;;;;;;;;5055306;28;20131;-65
2023/12/29 04:37:22;;;;;;;1589.03;999.90;;;;;;;;;;5076673;22;20062;-65
2023/12/29 04:39:49;;;;;;;1543.78;999.90;;;;;;;;;;5055025;28;20071;-65
2023/12/29 04:42:17;;;;;;;1583.47;999.90;;;;;;;;;;5055935;28;20021;-65
2023/12/29 04:44:44;;;;;;;1584.70;999.90;;;;;;;;;;5055586;28;20441;-66
2023/12/29 04:47:11;;;;;;;1588.72;999.90;;;;;;;;;;5048089;28;20021;-65
2023/12/29 04:49:38;;;;;;;1583.40;999.90;;;;;;;;;;5045240;28;20024;-65
2023/12/29 04:52:05;;;;;;;1585.18;999.90;;;;;;;;;;5045662;28;20025;-66
2023/12/29 04:54:31;;;;;;;1578.10;999.90;;;;;;;;;;5043602;28;20017;-66
2023/12/29 04:56:58;;;;;;;1586.43;999.90;;;;;;;;;;5045039;28;20096;-66
2023/12/29 04:59:25;;;;;;;1584.53;999.90;;;;;;;;;;5045738;28;20037;-67
2023/12/29 05:01:51;;;;;;;1582.78;999.90;;;;;;;;;;5045400;28;20025;-66
2023/12/29 05:04:18;;;;;;;1581.68;999.90;;;;;;;;;;5043329;28;20032;-66
2023/12/29 05:06:45;;;;;;;1586.43;999.90;;;;;;;;;;5045273;28;20041;-66
2023/12/29 05:09:11;;;;;;;1584.65;999.90;;;;;;;;;;5044128;28;20377;-64
2023/12/29 05:11:38;;;;;;;1576.95;999.90;;;;;;;;;;5044373;28;20033;-66
2023/12/29 05:14:04;;;;;;;1568.97;999.90;;;;;;;;;;5041815;28;20088;-64
2023/12/29 05:16:31;;;;;;;1583.55;999.90;;;;;;;;;;5043709;28;20321;-65
2023/12/29 05:18:58;;;;;;;1582.47;999.90;;;;;;;;;;5044011;28;20489;-66
2023/12/29 05:21:25;;;;;;;1573.38;999.90;;;;;;;;;;5043156;28;20087;-65
2023/12/29 05:23:52;;;;;;;1581.05;999.90;;;;;;;;;;5044721;28;20033;-66
2023/12/29 05:26:19;;;;;;;1586.85;999.90;;;;;;;;;;5045168;28;20063;-66
2023/12/29 05:28:45;;;;;;;1584.68;999.90;;;;;;;;;;5044174;28;20029;-65
2023/12/29 05:31:12;;;;;;;1590.35;999.90;;;;;;;;;;5042658;28;20029;-66
2023/12/29 05:33:39;;;;;;;1579.03;999.90;;;;;;;;;;5042751;28;20018;-66
2023/12/29 05:36:09;;;;;;;1587.13;999.90;;;;;;;;;;5040712;28;20036;-65
2023/12/29 05:38:36;;;;;;;1585.13;999.90;;;;;;;;;;5042670;28;20045;-64
2023/12/29 05:41:04;;;;;;;1590.93;999.90;;;;;;;;;;5042569;28;20067;-64
2023/12/29 05:43:31;;;;;;;1588.07;999.90;;;;;;;;;;5043292;28;20462;-65
2023/12/29 05:45:59;;;;;;;1585.32;999.90;;;;;;;;;;5042943;28;20039;-65
2023/12/29 05:48:26;;;;;;;1578.07;999.90;;;;;;;;;;5043079;28;20053;-64
2023/12/29 05:50:53;;;;;;;1597.03;999.90;;;;;;;;;;5042109;28;20031;-67
2023/12/29 05:53:19;;;;;;;1586.03;999.90;;;;;;;;;;5042891;28;20017;-65
2023/12/29 05:55:46;;;;;;;1598.60;999.90;;;;;;;;;;5043103;28;20106;-64
2023/12/29 05:58:13;;;;;;;1600.20;999.90;;;;;;;;;;5044191;28;20017;-66
2023/12/29 06:00:40;;;;;;;1583.43;999.90;;;;;;;;;;5025634;28;20163;-64
2023/12/29 06:03:06;;;;;;;1598.75;999.90;;;;;;;;;;5043450;28;20163;-65
2023/12/29 06:05:33;;;;;;;1586.55;999.90;;;;;;;;;;5042400;28;20525;-65
2023/12/29 06:08:00;;;;;;;1576.07;999.90;;;;;;;;;;5041244;28;20414;-65
2023/12/29 06:10:26;;;;;;;1576.03;999.90;;;;;;;;;;5034747;28;20040;-65
2023/12/29 06:12:53;;;;;;;1589.13;999.90;;;;;;;;;;5037651;28;20037;-65
2023/12/29 06:15:20;;;;;;;1596.80;999.90;;;;;;;;;;5035100;28;20133;-66
2023/12/29 06:17:47;;;;;;;1602.05;999.90;;;;;;;;;;5047293;28;20330;-65
2023/12/29 06:20:14;;;;;;;1599.07;999.90;;;;;;;;;;5048610;28;20029;-64
2023/12/29 06:22:41;;;;;;;1613.95;999.90;;;;;;;;;;5035308;28;20029;-63
2023/12/29 06:25:10;;;;;;;1599.63;999.90;;;;;;;;;;5038584;28;20642;-64
2023/12/29 06:27:38;;;;;;;1608.22;999.90;;;;;;;;;;5043381;28;20052;-68
2023/12/29 06:30:07;;;;;;;1596.88;999.90;;;;;;;;;;5045395;28;20143;-67
2023/12/29 06:32:34;;;;;;;1606.05;999.90;;;;;;;;;;5040813;28;20029;-65
2023/12/29 06:35:01;;;;;;;1612.25;999.90;;;;;;;;;;5039962;28;20037;-66
2023/12/29 06:37:28;;;;;;;1612.32;999.90;;;;;;;;;;5041852;28;20057;-64
2023/12/29 06:39:54;;;;;;;1610.28;999.90;;;;;;;;;;5040555;28;20025;-65
2023/12/29 06:42:22;;;;;;;1606.95;999.90;;;;;;;;;;5037278;28;20049;-65
2023/12/29 06:44:49;;;;;;;1609.57;999.90;;;;;;;;;;5039556;28;20060;-66
2023/12/29 06:47:16;;;;;;;1594.93;999.90;;;;;;;;;;5045284;28;20104;-64
2023/12/29 06:49:42;;;;;;;1596.95;999.90;;;;;;;;;;5040788;28;20374;-65
2023/12/29 06:52:09;;;;;;;1611.15;999.90;;;;;;;;;;5045491;28;20382;-65
2023/12/29 06:54:35;;;;;;;1597.18;999.90;;;;;;;;;;5045208;28;20022;-65
2023/12/29 06:57:02;;;;;;;1600.05;999.90;;;;;;;;;;5028363;28;20232;-65
2023/12/29 06:59:29;;;;;;;1605.45;999.90;;;;;;;;;;5048459;28;20078;-65
2023/12/29 07:01:55;;;;;;;1602.95;999.90;;;;;;;;;;5043532;28;20028;-66
2023/12/29 07:04:22;;;;;;;1604.60;999.90;;;;;;;;;;5038265;28;20022;-64
2023/12/29 07:06:49;;;;;;;1605.35;999.90;;;;;;;;;;5038048;28;20414;-64
2023/12/29 07:09:15;;;;;;;1603.30;999.90;;;;;;;;;;5039260;28;20027;-65
2023/12/29 07:11:42;;;;;;;1591.38;999.90;;;;;;;;;;5038376;28;20014;-64
2023/12/29 07:14:09;;;;;;;1618.30;999.90;;;;;;;;;;5037779;28;20056;-66
2023/12/29 07:16:35;;;;;;;1589.82;999.90;;;;;;;;;;5038086;28;20025;-66
2023/12/29 07:19:03;;;;;;;1604.78;999.90;;;;;;;;;;5036981;28;20382;-64
2023/12/29 07:21:29;;;;;;;1593.68;999.90;;;;;;;;;;5037158;28;20583;-65
2023/12/29 07:23:56;;;;;;;1611.18;999.90;;;;;;;;;;5043585;28;20070;-62
2023/12/29 07:26:22;;;;;;;1637.80;999.90;;;;;;;;;;5039889;28;20096;-64
2023/12/29 07:28:53;;;;;;;1609.30;999.90;;;;;;;;;;5040987;28;20041;-65
2023/12/29 07:31:21;;;;;;;1609.53;999.90;;;;;;;;;;5045862;28;20036;-65
2023/12/29 07:33:48;;;;;;;1632.63;999.90;;;;;;;;;;5037553;28;20496;-65
2023/12/29 07:36:14;;;;;;;1608.93;999.90;;;;;;;;;;5041721;28;20016;-65
2023/12/29 07:38:42;;;;;;;1602.55;999.90;;;;;;;;;;5042409;28;20013;-65
2023/12/29 07:41:09;;;;;;;1603.80;999.90;;;;;;;;;;5041197;28;20462;-64
2023/12/29 07:43:36;;;;;;;1606.60;999.90;;;;;;;;;;5048299;28;20068;-66
2023/12/29 07:46:03;;;;;;;1604.18;999.90;;;;;;;;;;5041674;28;20562;-64
2023/12/29 07:48:29;;;;;;;1611.18;999.90;;;;;;;;;;5041926;28;20056;-65
2023/12/29 07:50:59;;;;;;;1612.55;999.90;;;;;;;;;;5039307;28;20179;-65
2023/12/29 07:53:25;;;;;;;1603.78;999.90;;;;;;;;;;5046993;28;20021;-65
2023/12/29 07:55:53;;;;;;;1600.45;999.90;;;;;;;;;;5043380;28;20025;-65
2023/12/29 07:58:20;;;;;;;1603.25;999.90;;;;;;;;;;5037253;28;20029;-65
2023/12/29 08:00:46;;;;;;;1600.65;999.90;;;;;;;;;;5041216;28;20079;-66
2023/12/29 08:03:13;;;;;;;1612.05;999.90;;;;;;;;;;5032626;28;20025;-66
2023/12/29 08:05:40;;;;;;;1608.28;999.90;;;;;;;;;;5035105;28;20025;-69
2023/12/29 08:08:06;;;;;;;1601.47;999.90;;;;;;;;;;5040121;28;20040;-65
2023/12/29 08:10:33;;;;;;;1601.07;999.90;;;;;;;;;;5043574;28;20546;-65
2023/12/29 08:12:59;;;;;;;1604.43;999.90;;;;;;;;;;5042545;28;20033;-66
2023/12/29 08:15:26;;;;;;;1593.20;999.90;;;;;;;;;;5041925;28;20375;-65
2023/12/29 08:17:53;;;;;;;1614.60;999.90;;;;;;;;;;5043013;28;20060;-66
2023/12/29 08:20:21;;;;;;;1676.18;999.90;;;;;;;;;;5043666;28;20470;-64
2023/12/29 08:22:47;;;;;;;1659.35;999.90;;;;;;;;;;5046387;28;20021;-62
2023/12/29 08:25:14;;;;;;;1619.75;999.90;;;;;;;;;;5043995;28;20426;-65
2023/12/29 08:27:41;;;;;;;1612.65;999.90;;;;;;;;;;5047809;28;20028;-64
2023/12/29 08:30:08;;;;;;;1607.85;999.90;;;;;;;;;;5044896;28;20029;-65
2023/12/29 08:32:34;;;;;;;1612.65;999.90;;;;;;;;;;5047356;28;20029;-66
2023/12/29 08:35:01;;;;;;;1611.35;999.90;;;;;;;;;;5045882;28;20052;-65
2023/12/29 08:37:27;;;;;;;1606.43;999.90;;;;;;;;;;5040386;28;20056;-65
2023/12/29 08:39:54;;;;;;;1607.75;999.90;;;;;;;;;;5044450;28;20068;-65
2023/12/29 08:42:21;;;;;;;1607.68;999.90;;;;;;;;;;5044317;28;20030;-65
2023/12/29 08:44:47;;;;;;;1610.05;999.90;;;;;;;;;;5043255;28;20029;-63
2023/12/29 08:47:14;;;;;;;1623.20;999.90;;;;;;;;;;5037442;28;20051;-63
2023/12/29 08:49:41;;;;;;;1621.70;999.90;;;;;;;;;;5041386;28;20108;-64
2023/12/29 08:52:09;;;;;;;1604.90;999.90;;;;;;;;;;5041216;28;20031;-64
2023/12/29 08:54:37;;;;;;;1613.97;999.90;;;;;;;;;;5044011;28;20017;-66
2023/12/29 08:57:06;;;;;;;1617.32;999.90;;;;;;;;;;5045880;28;20044;-66
2023/12/29 08:59:33;;;;;;;1601.75;999.90;;;;;;;;;;5040893;28;20496;-66
2023/12/29 09:02:00;;;;;;;1604.57;999.90;;;;;;;;;;5038819;28;20060;-65
2023/12/29 09:04:26;;;;;;;1605.25;999.90;;;;;;;;;;5041428;28;20028;-64
2023/12/29 09:06:53;;;;;;;1610.85;999.90;;;;;;;;;;5043690;28;20017;-64
2023/12/29 09:09:20;;;;;;;1588.63;999.90;;;;;;;;;;5040634;28;20033;-66
2023/12/29 09:11:47;;;;;;;1608.35;999.90;;;;;;;;;;5043937;28;20017;-65
2023/12/29 09:14:14;;;;;;;1599.43;999.90;;;;;;;;;;5046405;28;20466;-64
2023/12/29 09:16:42;;;;;;;1588.32;999.90;;;;;;;;;;5045979;28;20032;-65
2023/12/29 09:19:09;;;;;;;1601.07;999.90;;;;;;;;;;5045183;28;20038;-65
2023/12/29 09:21:36;;;;;;;1601.95;999.90;;;;;;;;;;5044935;28;20025;-64
2023/12/29 09:24:02;;;;;;;1602.18;999.90;;;;;;;;;;5039531;28;20021;-64
2023/12/29 09:26:29;;;;;;;1629.80;999.90;;;;;;;;;;5043707;28;20024;-65
2023/12/29 09:28:55;;;;;;;1596.47;999.90;;;;;;;;;;5038139;28;20029;-66
2023/12/29 09:31:22;;;;;;;1597.50;999.90;;;;;;;;;;5045582;28;20028;-64
2023/12/29 09:33:49;;;;;;;1598.50;999.90;;;;;;;;;;5048625;28;20020;-64
2023/12/29 09:36:15;;;;;;;1597.93;999.90;;;;;;;;;;5044877;28;20021;-65
2023/12/29 09:38:45;;;;;;;1582.90;999.90;;;;;;;;;;5048612;28;20382;-66
2023/12/29 09:41:15;;;;;;;1599.88;999.90;;;;;;;;;;5039066;28;20057;-63
2023/12/29 09:43:44;;;;;;;1599.15;999.90;;;;;;;;;;5045753;28;20080;-64
2023/12/29 09:46:10;;;;;;;1600.00;999.90;;;;;;;;;;5041669;28;20025;-65
2023/12/29 09:48:38;;;;;;;1607.43;999.90;;;;;;;;;;5041250;28;20036;-66
2023/12/29 09:51:06;;;;;;;1606.70;999.90;;;;;;;;;;5039926;28;21116;-64
2023/12/29 09:53:34;;;;;;;1598.88;999.90;;;;;;;;;;5042643;28;20481;-66
2023/12/29 09:56:01;;;;;;;1600.65;999.90;;;;;;;;;;5042170;28;20026;-65
2023/12/29 09:58:28;;;;;;;1603.75;999.90;;;;;;;;;;5045871;28;20025;-65
2023/12/29 10:00:55;;;;;;;1592.63;999.90;;;;;;;;;;5045936;28;20031;-65
2023/12/29 10:03:21;;;;;;;1613.68;999.90;;;;;;;;;;5048825;28;20036;-67
2023/12/29 10:05:56;;;;;;;1600.60;999.90;;;;;;;;;;5049518;28;20059;-67
2023/12/29 10:08:23;;;;;;;1604.05;999.90;;;;;;;;;;5049681;28;20060;-68
2023/12/29 10:10:50;;;;;;;1604.03;999.90;;;;;;;;;;5041203;28;20029;-67
2023/12/29 10:13:18;;;;;;;1602.25;999.90;;;;;;;;;;5041888;28;20074;-67
2023/12/29 10:16:04;;;;;;;1600.07;999.90;;;;;;;;;;5041822;28;20029;-65
2023/12/29 10:18:36;;;;;;;1612.07;999.90;;;;;;;;;;5045810;28;20029;-65
2023/12/29 10:21:07;;;;;;;1629.75;999.90;;;;;;;;;;5042350;28;20494;-66
2023/12/29 10:23:37;;;;;;;1611.25;999.90;;;;;;;;;;5042781;28;20084;-66
2023/12/29 10:26:04;;;;;;;1634.53;999.90;;;;;;;;;;5040893;28;20032;-66
2023/12/29 10:28:30;;;;;;;1613.80;999.90;;;;;;;;;;5042818;28;20063;-67
2023/12/29 10:30:57;;;;;;;1627.50;999.90;;;;;;;;;;5044249;28;20020;-66
2023/12/29 10:33:24;;;;;;;1602.25;999.90;;;;;;;;;;5041722;28;20089;-66
2023/12/29 10:36:06;;;;;;;1726.15;999.90;;;;;;;;;;5041285;28;20421;-68
2023/12/29 10:38:33;;;;;;;1833.68;999.90;;;;;;;;;;5043517;28;20123;-68
2023/12/29 10:41:19;;;;;;;1696.75;999.90;;;;;;;;;;5040420;28;20517;-68
2023/12/29 10:43:51;;;;;;;1636.55;999.90;;;;;;;;;;5042379;28;20030;-67
2023/12/29 10:46:20;;;;;;;1620.65;999.90;;;;;;;;;;5041640;28;20041;-65
2023/12/29 10:48:48;;;;;;;1607.72;999.90;;;;;;;;;;5040119;28;20025;-66
2023/12/29 10:51:14;;;;;;;1528.38;999.90;;;;;;;;;;5043704;28;20437;-65
2023/12/29 10:53:42;;;;;;;1641.30;999.90;;;;;;;;;;5041480;28;20030;-65
2023/12/29 10:56:29;;;;;;;1604.00;999.90;;;;;;;;;;5042955;28;20108;-65
2023/12/29 10:58:59;;;;;;;1956.40;999.90;;;;;;;;;;5040762;28;20030;-64
2023/12/29 11:01:26;;;;;;;1999.90;999.90;;;;;;;;;;5046444;28;20470;-66
2023/12/29 11:04:02;;;;;;;1611.55;999.90;;;;;;;;;;5041141;28;20036;-66
2023/12/29 11:06:29;;;;;;;1530.00;999.90;;;;;;;;;;5041652;28;20493;-66
2023/12/29 11:08:56;;;;;;;1614.38;999.90;;;;;;;;;;5042950;28;20028;-65
2023/12/29 11:11:23;;;;;;;1624.18;999.90;;;;;;;;;;5040153;28;20029;-66
2023/12/29 11:13:51;;;;;;;1871.50;999.90;;;;;;;;;;5040224;28;20028;-66
2023/12/29 11:16:21;;;;;;;1798.90;999.90;;;;;;;;;;5041196;28;20035;-65
2023/12/29 11:18:51;;;;;;;1704.80;999.90;;;;;;;;;;5043639;28;20035;-65
2023/12/29 11:21:18;;;;;;;1759.18;999.90;;;;;;;;;;5045861;28;21259;-68
2023/12/29 11:23:45;;;;;;;1873.30;999.90;;;;;;;;;;5047056;28;20025;-64
2023/12/29 11:26:12;;;;;;;1949.60;999.90;;;;;;;;;;5041390;28;20034;-66
2023/12/29 11:28:38;;;;;;;1767.00;999.90;;;;;;;;;;5043126;28;20068;-66
2023/12/29 11:31:05;;;;;;;1671.97;999.90;;;;;;;;;;5046412;28;20025;-65
2023/12/29 11:33:35;;;;;;;1618.07;999.90;;;;;;;;;;5046495;28;20025;-65
2023/12/29 11:36:05;;;;;;;1582.72;999.90;;;;;;;;;;5044150;28;20013;-65
2023/12/29 11:38:34;;;;;;;1620.18;999.90;;;;;;;;;;5042482;28;20106;-68
2023/12/29 11:41:05;;;;;;;1582.57;999.90;;;;;;;;;;5056032;28;20056;-66
2023/12/29 11:43:31;;;;;;;1603.43;999.90;;;;;;;;;;5049909;28;20104;-66
2023/12/29 11:45:58;;;;;;;1605.97;999.90;;;;;;;;;;5046816;28;20026;-67
2023/12/29 11:48:44;;;;;;;1602.43;999.90;;;;;;;;;;5046450;28;20021;-66
2023/12/29 11:51:31;;;;;;;1628.60;999.90;;;;;;;;;;5044961;28;20025;-66
2023/12/29 11:53:58;;;;;;;1600.05;999.90;;;;;;;;;;5016106;28;20078;-66
2023/12/29 11:56:24;;;;;;;1608.10;999.90;;;;;;;;;;5047902;28;20414;-65
2023/12/29 11:58:51;;;;;;;1598.43;999.90;;;;;;;;;;5044992;28;20066;-67
2023/12/29 12:01:35;;;;;;;1631.07;999.90;;;;;;;;;;5046107;28;20029;-66
2023/12/29 12:04:02;;;;;;;1603.68;999.90;;;;;;;;;;5046223;28;20037;-65
2023/12/29 12:06:40;;;;;;;1596.63;999.90;;;;;;;;;;5043821;28;20032;-64
2023/12/29 12:09:19;;;;;;;1588.70;999.90;;;;;;;;;;5045841;28;20092;-65
2023/12/29 12:11:49;;;;;;;1596.50;999.90;;;;;;;;;;5047987;28;20027;-66
2023/12/29 12:14:36;;;;;;;1592.90;999.90;;;;;;;;;;5048042;28;20072;-65
2023/12/29 12:17:02;;;;;;;1574.32;999.90;;;;;;;;;;5045829;28;20021;-65
2023/12/29 12:19:35;;;;;;;1590.82;999.90;;;;;;;;;;5045599;28;20044;-65
2023/12/29 12:22:02;;;;;;;1577.93;999.90;;;;;;;;;;5045493;28;20039;-66
2023/12/29 12:24:29;;;;;;;1584.13;999.90;;;;;;;;;;5047065;28;20055;-66
2023/12/29 12:26:56;;;;;;;1608.90;999.90;;;;;;;;;;5035869;28;20029;-68
2023/12/29 12:29:23;;;;;;;1594.05;999.90;;;;;;;;;;5050359;28;20037;-66
2023/12/29 12:31:59;;;;;;;1577.35;999.90;;;;;;;;;;5050245;28;20100;-66
2023/12/29 12:34:28;;;;;;;1602.15;999.90;;;;;;;;;;5044297;28;20075;-66
2023/12/29 12:36:56;;;;;;;1565.85;999.90;;;;;;;;;;5027790;28;20434;-66
2023/12/29 12:39:23;;;;;;;1581.28;999.90;;;;;;;;;;5046285;28;20048;-68
2023/12/29 12:41:50;;;;;;;1592.22;999.90;;;;;;;;;;5043762;28;20017;-67
2023/12/29 12:44:16;;;;;;;1609.05;999.90;;;;;;;;;;5045568;28;20022;-67
2023/12/29 12:46:44;;;;;;;1592.40;999.90;;;;;;;;;;5044271;28;20078;-66
2023/12/29 12:49:11;;;;;;;1607.68;999.90;;;;;;;;;;5045861;28;20028;-66
2023/12/29 12:51:37;;;;;;;1602.15;999.90;;;;;;;;;;5043287;28;20032;-66
2023/12/29 12:54:04;;;;;;;1583.05;999.90;;;;;;;;;;5052090;28;20072;-66
2023/12/29 12:56:31;;;;;;;1594.05;999.90;;;;;;;;;;5046374;28;20026;-66
2023/12/29 12:58:58;;;;;;;1555.30;999.90;;;;;;;;;;5044113;28;20014;-66
2023/12/29 13:01:26;;;;;;;1576.95;999.90;;;;;;;;;;5045569;28;20028;-66
2023/12/29 13:03:53;;;;;;;1582.25;999.90;;;;;;;;;;5045349;28;20014;-66
2023/12/29 13:06:20;;;;;;;1599.90;999.90;;;;;;;;;;5043722;28;20514;-65
2023/12/29 13:08:49;;;;;;;1591.28;999.90;;;;;;;;;;5046167;28;20393;-66
2023/12/29 13:11:21;;;;;;;1589.28;999.90;;;;;;;;;;5044987;28;20497;-66
2023/12/29 13:13:48;;;;;;;;;;;;;;;;;;5044874;28;20055;-67
2023/12/29 13:16:14;;;;;;;1579.78;999.90;;;;;;;;;;5045794;28;19905;-67
2023/12/29 13:18:41;;;;;;;1595.30;999.90;;;;;;;;;;5043799;28;20024;-68
2023/12/29 13:21:09;;;;;;;1579.95;999.90;;;;;;;;;;5044638;28;20058;-67
2023/12/29 13:23:36;;;;;;;1590.75;999.90;;;;;;;;;;5045909;28;20081;-68
2023/12/29 13:26:06;;;;;;;1589.32;999.90;;;;;;;;;;5043273;28;20099;-67
2023/12/29 13:28:33;;;;;;;1585.70;999.90;;;;;;;;;;5043880;28;20040;-68
2023/12/29 13:31:01;;;;;;;1600.57;999.90;;;;;;;;;;5043849;28;20184;-66
2023/12/29 13:33:32;;;;;;;1590.05;999.90;;;;;;;;;;5044082;28;20021;-66
2023/12/29 13:36:07;;;;;;;1587.53;999.90;;;;;;;;;;5045010;28;20017;-66
2023/12/29 13:38:37;;;;;;;1588.55;999.90;;;;;;;;;;5043164;28;20191;-66
2023/12/29 13:41:08;;;;;;;1580.43;999.90;;;;;;;;;;5044362;28;20028;-66
2023/12/29 13:43:35;;;;;;;1579.90;999.90;;;;;;;;;;5043840;28;20021;-66